createdAt,value
2019-01-31T00:04:36.654Z,75.40
2019-01-31T00:07:15.086Z,76.28
2019-01-31T00:27:25.586Z,77.98
2019-01-31T00:30:18.341Z,77.26
2019-01-31T00:33:00.611Z,77.24
2019-01-31T00:35:40.190Z,77.51
2019-01-31T00:41:29.683Z,76.97
2019-01-31T00:44:13.727Z,78.65
2019-01-31T00:46:57.419Z,79.53
2019-01-31T00:49:51.992Z,79.20
2019-01-31T00:53:39.603Z,79.90
2019-01-31T00:57:33.867Z,79.13
2019-01-31T01:00:13.282Z,78.02
2019-01-31T01:02:56.840Z,77.47
2019-01-31T01:05:55.772Z,78.27
2019-01-31T01:26:01.288Z,78.09
2019-01-31T01:30:47.129Z,79.30
2019-01-31T01:33:34.975Z,79.71
2019-01-31T01:36:21.791Z,80.04
2019-01-31T01:41:11.012Z,79.37
2019-01-31T01:43:49.326Z,79.65
2019-01-31T01:46:59.260Z,79.45
2019-01-31T01:50:08.772Z,77.70
2019-01-31T02:10:45.383Z,77.28
2019-01-31T02:13:29.643Z,78.03
2019-01-31T02:16:15.600Z,78.30
2019-01-31T02:18:52.953Z,78.92
2019-01-31T02:28:38.059Z,80.09
2019-01-31T02:31:18.586Z,79.48
2019-01-31T02:34:15.880Z,79.73
2019-01-31T02:38:02.564Z,80.22
2019-01-31T02:42:46.855Z,79.40
2019-01-31T02:45:30.924Z,80.18
2019-01-31T02:48:09.353Z,80.18
2019-01-31T02:50:50.332Z,80.24
2019-01-31T02:53:34.521Z,79.85
2019-01-31T02:56:12.441Z,80.22
2019-01-31T02:58:47.630Z,80.00
2019-01-31T03:02:11.467Z,79.88
2019-01-31T03:06:59.259Z,80.27
2019-01-31T03:10:20.283Z,79.32
2019-01-31T03:13:18.538Z,79.35
2019-01-31T03:16:12.511Z,79.29
2019-01-31T03:18:49.125Z,79.55
2019-01-31T03:41:25.308Z,81.31
2019-01-31T03:44:05.769Z,81.73
2019-01-31T03:47:48.043Z,81.83
2019-01-31T03:50:35.448Z,82.58
2019-01-31T03:53:20.609Z,82.30
2019-01-31T03:56:07.513Z,82.56
2019-01-31T03:58:55.560Z,83.10
2019-01-31T04:02:03.951Z,82.00
2019-01-31T04:04:38.295Z,82.28
2019-01-31T04:07:07.812Z,82.39
2019-01-31T04:09:37.327Z,82.66
2019-01-31T04:12:06.980Z,83.00
2019-01-31T04:14:36.648Z,82.60
2019-01-31T04:17:06.376Z,82.50
2019-01-31T04:19:36.240Z,82.73
2019-01-31T04:22:05.992Z,82.00
2019-01-31T04:24:35.585Z,82.33
2019-01-31T04:27:05.389Z,82.26
2019-01-31T04:29:35.175Z,82.15
2019-01-31T04:32:04.959Z,81.82
2019-01-31T04:34:37.765Z,81.45
2019-01-31T04:37:07.103Z,81.97
2019-01-31T04:39:36.427Z,82.17
2019-01-31T04:42:06.022Z,82.17
2019-01-31T04:44:35.524Z,82.09
2019-01-31T04:47:05.522Z,81.86
2019-01-31T04:49:35.173Z,81.48
2019-01-31T04:52:04.694Z,81.98
2019-01-31T04:54:34.391Z,81.89
2019-01-31T04:57:03.942Z,81.56
2019-01-31T04:59:33.485Z,81.70
2019-01-31T05:02:03.015Z,81.30
2019-01-31T05:04:32.594Z,82.15
2019-01-31T05:07:02.305Z,82.23
2019-01-31T05:09:31.690Z,81.78
2019-01-31T05:29:23.025Z,82.33
2019-01-31T05:31:52.685Z,82.11
2019-01-31T05:34:22.185Z,82.50
2019-01-31T05:36:51.952Z,83.03
2019-01-31T05:39:21.781Z,82.72
2019-01-31T05:41:51.382Z,83.05
2019-01-31T05:44:20.799Z,82.83
2019-01-31T05:46:50.327Z,81.78
2019-01-31T05:49:20.164Z,80.75
2019-01-31T05:51:49.725Z,80.69
2019-01-31T05:54:19.351Z,81.96
2019-01-31T05:56:49.233Z,81.36
2019-01-31T05:59:18.764Z,81.97
2019-01-31T06:01:48.292Z,81.18
2019-01-31T06:04:17.968Z,81.59
2019-01-31T06:06:47.573Z,81.15
2019-01-31T06:09:17.317Z,81.25
2019-01-31T06:11:46.989Z,81.88
2019-01-31T06:14:16.512Z,82.86
2019-01-31T06:16:46.285Z,82.49
2019-01-31T06:19:15.975Z,83.56
2019-01-31T06:21:45.421Z,83.26
2019-01-31T06:24:15.190Z,83.45
2019-01-31T06:26:44.860Z,82.72
2019-01-31T06:29:14.610Z,83.54
2019-01-31T06:31:44.216Z,82.75
2019-01-31T06:34:13.830Z,83.31
2019-01-31T06:36:43.604Z,82.83
2019-01-31T06:39:13.032Z,82.61
2019-01-31T06:41:42.491Z,82.69
2019-01-31T06:44:12.251Z,82.83
2019-01-31T06:46:41.959Z,82.72
2019-01-31T06:49:11.549Z,82.57
2019-01-31T06:51:41.122Z,82.02
2019-01-31T06:54:10.524Z,82.15
2019-01-31T06:56:39.923Z,82.99
2019-01-31T06:59:09.659Z,82.69
2019-01-31T07:01:39.574Z,82.44
2019-01-31T07:04:11.040Z,81.88
2019-01-31T07:06:38.807Z,82.36
2019-01-31T07:09:10.856Z,81.93
2019-01-31T07:11:40.491Z,81.53
2019-01-31T07:14:10.187Z,82.01
2019-01-31T07:16:39.771Z,83.44
2019-01-31T07:19:09.287Z,82.70
2019-01-31T07:21:38.808Z,83.54
2019-01-31T07:24:08.841Z,83.38
2019-01-31T07:26:41.390Z,83.58
2019-01-31T07:29:08.243Z,83.29
2019-01-31T07:31:37.932Z,82.74
2019-01-31T07:34:07.598Z,82.94
2019-01-31T07:36:37.312Z,81.57
2019-01-31T07:39:08.551Z,81.61
2019-01-31T07:41:41.347Z,81.45
2019-01-31T07:44:08.340Z,81.13
2019-01-31T08:04:02.567Z,79.24
2019-01-31T08:06:30.455Z,78.98
2019-01-31T08:09:00.028Z,78.76
2019-01-31T08:11:29.771Z,78.23
2019-01-31T08:13:59.563Z,77.97
2019-01-31T08:16:29.279Z,78.70
2019-01-31T08:18:59.050Z,77.46
2019-01-31T08:21:28.829Z,77.20
2019-01-31T08:23:58.558Z,77.38
2019-01-31T08:43:51.457Z,70.25
2019-01-31T08:46:20.968Z,69.32
2019-01-31T08:48:50.595Z,67.52
2019-01-31T08:51:20.007Z,68.92
2019-01-31T08:53:49.715Z,69.39
2019-01-31T08:56:19.497Z,66.60
2019-01-31T08:58:49.339Z,65.88
2019-01-31T09:01:18.906Z,66.68
2019-01-31T09:03:48.552Z,65.21
2019-01-31T09:06:18.389Z,65.45
2019-01-31T09:08:48.039Z,65.61
2019-01-31T09:11:17.620Z,65.45
2019-01-31T09:13:47.277Z,63.23
2019-01-31T09:16:17.044Z,62.63
2019-01-31T09:18:52.923Z,61.89
2019-01-31T09:21:37.038Z,60.35
2019-01-31T09:26:35.101Z,60.36
2019-01-31T09:29:25.386Z,58.97
2019-01-31T09:32:23.405Z,58.18
2019-01-31T09:35:17.999Z,57.45
2019-01-31T09:37:58.569Z,57.31
2019-01-31T09:40:42.320Z,57.92
2019-01-31T09:43:21.639Z,57.43
2019-01-31T09:46:04.327Z,59.88
2019-01-31T09:48:46.305Z,60.40
2019-01-31T09:51:28.528Z,61.47
2019-01-31T09:56:14.255Z,62.23
2019-01-31T09:58:59.459Z,64.49
2019-01-31T10:01:43.730Z,63.34
2019-01-31T10:04:53.080Z,63.58
2019-01-31T10:07:32.195Z,63.94
2019-01-31T10:10:48.436Z,63.43
2019-01-31T10:13:34.791Z,62.40
2019-01-31T10:16:13.434Z,64.12
2019-01-31T10:19:27.230Z,64.91
2019-01-31T10:22:08.426Z,64.27
2019-01-31T10:25:26.012Z,63.64
2019-01-31T10:30:08.715Z,62.13
2019-01-31T10:35:51.934Z,64.17
2019-01-31T10:41:36.658Z,61.83
2019-01-31T10:44:47.288Z,61.08
2019-01-31T10:47:33.155Z,62.22
2019-01-31T10:50:13.947Z,60.76
2019-01-31T10:52:52.125Z,62.86
2019-01-31T10:57:39.674Z,63.23
2019-01-31T11:01:18.024Z,63.26
2019-01-31T11:04:05.112Z,63.76
2019-01-31T11:06:52.604Z,64.32
2019-01-31T11:09:38.308Z,64.48
2019-01-31T11:12:32.113Z,64.54
2019-01-31T11:17:18.939Z,64.08
2019-01-31T11:19:59.491Z,65.72
2019-01-31T11:22:37.847Z,65.34
2019-01-31T11:25:34.499Z,66.19
2019-01-31T11:30:20.789Z,66.44
2019-01-31T11:34:06.995Z,66.70
2019-01-31T11:37:00.664Z,66.83
2019-01-31T11:39:57.922Z,67.65
2019-01-31T11:42:41.217Z,67.70
2019-01-31T11:47:31.027Z,67.85
2019-01-31T11:51:13.153Z,68.68
2019-01-31T11:54:57.265Z,66.68
2019-01-31T11:57:45.721Z,65.65
2019-01-31T12:00:16.305Z,66.40
2019-01-31T12:02:54.716Z,66.56
2019-01-31T12:05:15.862Z,66.00
2019-01-31T12:07:45.625Z,66.85
2019-01-31T12:10:15.442Z,66.90
2019-01-31T12:12:45.184Z,66.76
2019-01-31T12:15:14.987Z,66.36
2019-01-31T12:17:44.695Z,66.06
2019-01-31T12:20:14.489Z,65.88
2019-01-31T12:22:44.554Z,66.09
2019-01-31T12:25:14.335Z,63.90
2019-01-31T12:27:44.007Z,64.22
2019-01-31T12:30:18.157Z,64.55
2019-01-31T12:32:47.935Z,64.85
2019-01-31T12:35:17.480Z,65.56
2019-01-31T12:37:46.808Z,65.93
2019-01-31T12:40:17.457Z,66.37
2019-01-31T12:42:47.179Z,64.98
2019-01-31T12:45:18.379Z,64.46
2019-01-31T12:47:48.179Z,65.03
2019-01-31T13:07:39.647Z,64.98
2019-01-31T13:10:09.360Z,64.35
2019-01-31T13:12:48.367Z,64.99
2019-01-31T13:15:09.129Z,64.91
2019-01-31T13:17:38.764Z,64.21
2019-01-31T13:20:13.111Z,63.71
2019-01-31T13:22:42.832Z,63.70
2019-01-31T13:25:12.677Z,64.07
2019-01-31T13:27:42.560Z,64.72
2019-01-31T13:30:14.762Z,64.05
2019-01-31T13:32:44.847Z,64.07
2019-01-31T13:35:14.573Z,64.04
2019-01-31T13:37:44.283Z,64.65
2019-01-31T13:40:17.335Z,65.56
2019-01-31T13:42:47.106Z,66.22
2019-01-31T13:45:19.041Z,67.56
2019-01-31T13:47:48.758Z,67.02
2019-01-31T13:50:19.554Z,67.69
2019-01-31T13:52:49.348Z,68.29
2019-01-31T13:55:24.334Z,68.41
2019-01-31T13:57:54.107Z,67.89
2019-01-31T14:00:23.976Z,67.47
2019-01-31T14:02:53.636Z,68.20
2019-01-31T14:05:23.436Z,68.09
2019-01-31T14:07:53.311Z,67.64
2019-01-31T14:10:24.194Z,68.78
2019-01-31T14:12:53.998Z,69.97
2019-01-31T14:15:32.869Z,70.16
2019-01-31T14:17:56.015Z,70.17
2019-01-31T14:20:27.210Z,70.63
2019-01-31T14:22:56.829Z,70.76
2019-01-31T14:25:26.491Z,70.87
2019-01-31T14:27:56.120Z,68.70
2019-01-31T14:30:31.394Z,68.28
2019-01-31T14:33:01.483Z,68.52
2019-01-31T14:35:31.175Z,68.40
2019-01-31T14:38:00.853Z,68.40
2019-01-31T14:40:30.606Z,68.78
2019-01-31T14:43:00.263Z,69.08
2019-01-31T14:45:30.280Z,68.80
2019-01-31T14:47:59.539Z,69.48
2019-01-31T14:50:31.102Z,69.98
2019-01-31T14:53:00.893Z,70.38
2019-01-31T14:55:30.491Z,71.95
2019-01-31T14:58:00.266Z,70.94
2019-01-31T15:00:31.331Z,70.67
2019-01-31T15:03:01.061Z,70.87
2019-01-31T15:05:30.621Z,71.47
2019-01-31T15:08:00.410Z,71.73
2019-01-31T15:10:30.242Z,72.33
2019-01-31T15:30:24.609Z,70.70
2019-01-31T15:32:54.300Z,72.37
2019-01-31T15:35:23.864Z,74.20
2019-01-31T15:43:56.740Z,77.68
2019-01-31T15:46:26.427Z,78.41
2019-01-31T15:48:56.125Z,79.21
2019-01-31T15:51:26.063Z,78.94
2019-01-31T15:53:55.644Z,80.03
2019-01-31T15:56:25.657Z,79.61
2019-01-31T15:58:55.402Z,79.75
2019-01-31T16:01:24.980Z,80.47
2019-01-31T16:03:54.699Z,79.47
2019-01-31T16:06:24.268Z,80.67
2019-01-31T16:08:53.705Z,81.18
2019-01-31T16:11:23.282Z,81.32
2019-01-31T16:13:53.049Z,81.46
2019-01-31T16:16:22.736Z,80.74
2019-01-31T16:18:52.051Z,80.84
2019-01-31T16:21:28.488Z,80.76
2019-01-31T16:23:58.218Z,80.88
2019-01-31T16:26:27.914Z,81.15
2019-01-31T16:28:57.560Z,81.61
2019-01-31T16:31:27.276Z,81.56
2019-01-31T16:33:57.063Z,80.39
2019-01-31T16:36:26.956Z,80.65
2019-01-31T16:38:56.730Z,81.07
2019-01-31T16:41:26.331Z,80.62
2019-01-31T16:43:55.833Z,80.89
2019-01-31T16:46:25.550Z,81.23
2019-01-31T16:48:55.235Z,80.83
2019-01-31T16:51:25.470Z,81.42
2019-01-31T16:53:55.160Z,81.27
2019-01-31T16:56:24.756Z,81.04
2019-01-31T16:58:54.265Z,80.81
2019-01-31T17:01:23.796Z,80.90
2019-01-31T17:03:53.408Z,80.99
2019-01-31T17:06:23.112Z,80.75
2019-01-31T17:08:52.808Z,80.80
2019-01-31T17:11:22.501Z,80.60
2019-01-31T17:13:52.219Z,79.78
2019-01-31T17:16:22.139Z,80.02
2019-01-31T17:18:54.821Z,81.04
2019-01-31T17:21:21.548Z,80.12
2019-01-31T17:23:51.225Z,80.63
2019-01-31T17:26:20.711Z,80.12
2019-01-31T17:28:56.720Z,79.21
2019-01-31T17:31:26.254Z,79.31
2019-01-31T17:33:55.847Z,78.89
2019-01-31T17:36:25.375Z,79.67
2019-01-31T17:38:55.247Z,79.51
2019-01-31T17:41:24.864Z,79.66
2019-01-31T17:43:54.480Z,79.69
2019-01-31T17:46:23.996Z,79.82
2019-01-31T17:48:53.547Z,79.94
2019-01-31T17:51:23.323Z,79.60
2019-01-31T17:53:52.847Z,78.94
2019-01-31T17:56:22.385Z,77.50
2019-01-31T17:58:51.726Z,78.22
2019-01-31T18:01:21.570Z,78.53
2019-01-31T18:03:51.140Z,79.66
2019-01-31T18:06:20.611Z,80.10
2019-01-31T18:08:50.407Z,80.16
2019-01-31T18:11:19.816Z,79.11
2019-01-31T18:13:49.323Z,79.42
2019-01-31T18:16:18.925Z,79.76
2019-01-31T18:18:48.531Z,78.82
2019-01-31T18:21:18.299Z,78.65
2019-01-31T18:23:48.004Z,79.78
2019-01-31T18:26:17.716Z,81.07
2019-01-31T18:28:47.264Z,80.00
2019-01-31T18:31:16.992Z,79.46
2019-01-31T18:33:46.411Z,79.54
2019-01-31T18:36:15.916Z,78.70
2019-01-31T18:38:45.484Z,79.15
2019-01-31T18:41:15.012Z,79.15
2019-01-31T18:43:44.491Z,78.63
2019-01-31T18:46:14.175Z,78.26
2019-01-31T18:48:43.675Z,78.32
2019-01-31T18:51:16.074Z,77.51
2019-01-31T18:53:43.037Z,77.69
2019-01-31T18:56:12.785Z,76.72
2019-01-31T18:58:42.486Z,75.97
2019-01-31T19:01:12.283Z,75.57
2019-01-31T19:03:41.868Z,75.45
2019-01-31T19:06:12.167Z,75.64
2019-01-31T19:08:41.687Z,77.50
2019-01-31T19:11:11.390Z,78.24
2019-01-31T19:13:40.973Z,78.52
2019-01-31T19:16:10.755Z,79.52
2019-01-31T19:18:40.367Z,78.89
2019-01-31T19:21:10.055Z,79.63
2019-01-31T19:23:39.748Z,79.61
2019-01-31T19:26:09.446Z,80.16
2019-01-31T19:28:39.145Z,80.55
2019-01-31T19:31:08.924Z,80.42
2019-01-31T19:33:38.539Z,79.96
2019-01-31T19:36:08.116Z,80.13
2019-01-31T19:38:37.800Z,80.32
2019-01-31T19:41:07.401Z,79.87
2019-01-31T19:43:39.972Z,80.14
2019-01-31T19:46:16.168Z,80.65
2019-01-31T19:48:39.437Z,79.99
2019-01-31T19:51:09.532Z,80.13
2019-01-31T19:53:39.335Z,79.91
2019-01-31T19:56:09.099Z,80.01
2019-01-31T19:58:38.697Z,80.65
2019-01-31T20:01:08.464Z,79.94
2019-01-31T20:03:38.366Z,80.24
2019-01-31T20:06:08.300Z,80.15
2019-01-31T20:08:38.414Z,80.91
2019-01-31T20:11:08.272Z,80.63
2019-01-31T20:13:37.869Z,80.20
2019-01-31T20:16:07.498Z,80.53
2019-01-31T20:18:36.982Z,79.93
2019-01-31T20:21:06.656Z,79.89
2019-01-31T20:23:36.412Z,79.39
2019-01-31T20:26:06.153Z,78.68
2019-01-31T20:28:35.783Z,79.05
2019-01-31T20:31:05.428Z,79.66
2019-01-31T20:33:35.307Z,80.02
2019-01-31T20:36:05.065Z,80.39
2019-01-31T20:38:34.563Z,79.83
2019-01-31T20:41:04.008Z,79.62
2019-01-31T20:43:33.644Z,79.66
2019-01-31T20:46:03.352Z,80.13
2019-01-31T20:48:33.303Z,80.25
2019-01-31T20:51:02.936Z,79.80
2019-01-31T20:53:32.655Z,80.69
2019-01-31T20:56:02.192Z,79.92
2019-01-31T20:58:31.718Z,80.39
2019-01-31T21:01:01.475Z,79.56
2019-01-31T21:03:31.373Z,78.92
2019-01-31T21:06:00.994Z,78.53
2019-01-31T21:08:30.642Z,79.47
2019-01-31T21:11:00.288Z,78.53
2019-01-31T21:13:29.868Z,78.50
2019-01-31T21:15:59.613Z,78.72
2019-01-31T21:18:29.319Z,78.62
2019-01-31T21:20:58.955Z,79.02
2019-01-31T21:23:28.719Z,78.28
2019-01-31T21:25:58.374Z,79.07
2019-01-31T21:28:27.969Z,79.12
2019-01-31T21:30:57.695Z,79.64
2019-01-31T21:33:27.511Z,79.49
2019-01-31T21:35:57.182Z,79.21
2019-01-31T21:38:26.670Z,79.26
2019-01-31T21:40:56.370Z,79.46
2019-01-31T21:43:25.979Z,78.70
2019-01-31T21:45:55.664Z,79.17
2019-01-31T21:48:25.163Z,78.88
2019-01-31T21:50:54.619Z,79.23
2019-01-31T21:53:24.094Z,79.22
2019-01-31T21:55:54.213Z,79.75
2019-01-31T21:58:23.668Z,79.37
2019-01-31T22:00:53.186Z,78.96
2019-01-31T22:03:22.783Z,78.97
2019-01-31T22:05:52.998Z,79.89
2019-01-31T22:08:22.685Z,80.32
2019-01-31T22:10:52.319Z,80.48
2019-01-31T22:13:22.086Z,80.50
2019-01-31T22:15:51.814Z,80.51
2019-01-31T22:18:21.440Z,80.58
2019-01-31T22:20:50.845Z,80.85
2019-01-31T22:23:20.491Z,80.86
2019-01-31T22:25:50.159Z,80.16
2019-01-31T22:28:19.783Z,80.90
2019-01-31T22:30:49.357Z,80.67
2019-01-31T22:33:18.876Z,80.89
2019-01-31T22:35:48.464Z,81.08
2019-01-31T22:38:18.095Z,80.67
2019-01-31T22:40:47.699Z,80.69
2019-01-31T22:43:17.604Z,80.55
2019-01-31T22:45:47.149Z,80.02
2019-01-31T22:48:16.818Z,80.02
2019-01-31T22:50:46.397Z,80.08
2019-01-31T22:53:15.989Z,79.66
2019-01-31T22:55:45.680Z,80.36
2019-01-31T22:58:15.353Z,81.42
2019-01-31T23:00:55.633Z,82.15
2019-01-31T23:03:25.525Z,82.92
2019-01-31T23:05:55.198Z,83.02
2019-01-31T23:08:24.832Z,82.94
2019-01-31T23:10:54.601Z,83.21
2019-01-31T23:13:24.539Z,82.82
2019-01-31T23:15:54.260Z,82.73
2019-01-31T23:18:23.999Z,82.58
2019-01-31T23:20:53.447Z,81.84
2019-01-31T23:23:23.052Z,81.83
2019-01-31T23:25:52.621Z,81.88
2019-01-31T23:28:22.111Z,82.00
2019-01-31T23:30:51.591Z,81.51
2019-01-31T23:33:21.156Z,80.58
2019-01-31T23:35:50.633Z,81.36
2019-01-31T23:38:20.231Z,81.18
2019-01-31T23:40:49.758Z,81.25
2019-01-31T23:43:19.638Z,82.64
2019-01-31T23:45:49.330Z,82.42
2019-01-31T23:48:19.043Z,82.27
2019-01-31T23:50:48.468Z,81.88
2019-01-31T23:53:18.159Z,82.18
2019-01-31T23:55:47.840Z,81.48
2019-01-31T23:58:17.527Z,81.70
